createdAt,value
2018-02-22T00:09:09.282Z,-1.70
2018-02-22T00:11:51.479Z,-1.80
2018-02-22T00:14:34.284Z,-1.80
2018-02-22T00:20:14.520Z,-1.90
2018-02-22T00:25:39.460Z,-2.00
2018-02-22T00:28:16.538Z,-2.00
2018-02-22T00:36:56.304Z,-2.20
2018-02-22T00:39:32.553Z,-2.20
2018-02-22T00:44:55.165Z,-2.20
2018-02-22T00:53:09.641Z,-2.10
2018-02-22T00:55:47.504Z,-2.10
2018-02-22T00:58:26.475Z,-2.20
2018-02-22T01:09:47.448Z,-2.30
2018-02-22T01:12:22.773Z,-2.30
2018-02-22T01:14:57.994Z,-2.40
2018-02-22T01:17:34.341Z,-2.40
2018-02-22T01:20:16.476Z,-2.50
2018-02-22T01:22:55.116Z,-2.50
2018-02-22T01:26:38.441Z,-2.50
2018-02-22T01:29:15.680Z,-2.50
2018-02-22T01:31:51.596Z,-2.50
2018-02-22T01:37:20.320Z,-2.60
2018-02-22T01:39:58.303Z,-2.60
2018-02-22T01:42:41.039Z,-2.60
2018-02-22T01:45:24.480Z,-2.60
2018-02-22T01:47:59.469Z,-2.60
2018-02-22T01:50:36.468Z,-2.60
2018-02-22T01:53:14.485Z,-2.60
2018-02-22T01:55:52.079Z,-2.60
2018-02-22T01:58:31.834Z,-2.60
2018-02-22T02:03:53.066Z,-2.70
2018-02-22T02:06:38.239Z,-2.70
2018-02-22T02:12:09.969Z,-2.70
2018-02-22T02:14:48.846Z,-2.70
2018-02-22T02:17:27.834Z,-2.80
2018-02-22T02:20:05.758Z,-2.80
2018-02-22T02:25:27.014Z,-2.80
2018-02-22T02:28:12.984Z,-2.80
2018-02-22T02:30:52.817Z,-2.90
2018-02-22T02:33:27.508Z,-2.80
2018-02-22T02:36:03.610Z,-2.90
2018-02-22T02:38:41.665Z,-2.90
2018-02-22T02:41:26.042Z,-2.90
2018-02-22T02:43:59.845Z,-2.90
2018-02-22T02:46:36.697Z,-3.00
2018-02-22T02:49:12.450Z,-3.00
2018-02-22T02:51:49.881Z,-3.00
2018-02-22T02:54:24.227Z,-3.00
2018-02-22T02:57:04.036Z,-3.00
2018-02-22T02:59:40.861Z,-2.90
2018-02-22T03:04:57.446Z,-3.20
2018-02-22T03:07:33.092Z,-3.20
2018-02-22T03:10:11.416Z,-3.20
2018-02-22T03:12:48.274Z,-3.30
2018-02-22T03:18:07.128Z,-3.30
2018-02-22T03:20:43.268Z,-3.30
2018-02-22T03:26:04.050Z,-3.30
2018-02-22T03:31:26.709Z,-3.30
2018-02-22T03:34:06.478Z,-3.30
2018-02-22T03:36:46.930Z,-3.30
2018-02-22T03:39:24.560Z,-3.30
2018-02-22T03:41:59.186Z,-3.20
2018-02-22T03:44:41.254Z,-3.20
2018-02-22T03:47:15.406Z,-3.20
2018-02-22T03:49:51.625Z,-3.20
2018-02-22T03:52:27.009Z,-3.30
2018-02-22T03:55:03.114Z,-3.30
2018-02-22T04:00:16.872Z,-3.30
2018-02-22T04:02:51.378Z,-3.30
2018-02-22T04:05:26.448Z,-3.30
2018-02-22T04:08:03.651Z,-3.30
2018-02-22T04:10:37.614Z,-3.20
2018-02-22T04:13:12.776Z,-3.30
2018-02-22T04:15:48.024Z,-3.20
2018-02-22T04:18:22.613Z,-3.20
2018-02-22T04:20:58.173Z,-3.20
2018-02-22T04:23:34.490Z,-3.20
2018-02-22T04:26:09.524Z,-3.20
2018-02-22T04:28:44.491Z,-3.20
2018-02-22T04:31:23.738Z,-3.20
2018-02-22T04:33:58.055Z,-3.20
2018-02-22T04:36:31.891Z,-3.20
2018-02-22T04:39:06.813Z,-3.20
2018-02-22T04:41:41.988Z,-3.30
2018-02-22T04:49:49.269Z,-3.30
2018-02-22T04:52:29.074Z,-3.40
2018-02-22T04:55:10.375Z,-3.40
2018-02-22T04:57:47.973Z,-3.30
2018-02-22T05:00:27.652Z,-3.30
2018-02-22T05:03:07.668Z,-3.30
2018-02-22T05:05:44.055Z,-3.30
2018-02-22T05:08:24.427Z,-3.40
2018-02-22T05:11:04.147Z,-3.40
2018-02-22T05:13:40.212Z,-3.50
2018-02-22T05:16:19.215Z,-3.50
2018-02-22T05:18:57.464Z,-3.50
2018-02-22T05:21:33.727Z,-3.50
2018-02-22T05:24:16.366Z,-3.50
2018-02-22T05:26:54.888Z,-3.40
2018-02-22T05:29:30.899Z,-3.50
2018-02-22T05:32:07.221Z,-3.50
2018-02-22T05:34:41.489Z,-3.40
2018-02-22T05:37:15.638Z,-3.40
2018-02-22T05:39:50.847Z,-3.50
2018-02-22T05:42:26.327Z,-3.40
2018-02-22T05:45:00.040Z,-3.50
2018-02-22T05:47:39.608Z,-3.50
2018-02-22T05:50:16.255Z,-3.60
2018-02-22T05:52:53.725Z,-3.60
2018-02-22T05:55:30.175Z,-3.60
2018-02-22T05:58:06.162Z,-3.60
2018-02-22T06:00:40.451Z,-3.60
2018-02-22T06:03:17.330Z,-3.60
2018-02-22T06:05:52.452Z,-3.50
2018-02-22T06:08:27.728Z,-3.50
2018-02-22T06:11:02.432Z,-3.50
2018-02-22T06:13:47.159Z,-3.50
2018-02-22T06:16:21.890Z,-3.40
2018-02-22T06:18:56.293Z,-3.40
2018-02-22T06:21:37.726Z,-3.30
2018-02-22T06:24:11.828Z,-3.20
2018-02-22T06:26:55.782Z,-3.00
2018-02-22T06:32:35.961Z,-2.80
2018-02-22T06:35:13.473Z,-2.60
2018-02-22T06:37:51.864Z,-2.60
2018-02-22T06:43:12.985Z,-2.50
2018-02-22T06:45:50.453Z,-2.40
2018-02-22T06:51:12.556Z,-2.30
2018-02-22T06:53:49.200Z,-2.20
2018-02-22T06:56:25.920Z,-2.20
2018-02-22T06:59:02.552Z,-2.20
2018-02-22T07:01:47.357Z,-2.10
2018-02-22T07:04:29.502Z,-2.10
2018-02-22T07:07:10.598Z,-2.00
2018-02-22T07:12:32.642Z,-1.90
2018-02-22T07:15:19.566Z,-1.90
2018-02-22T07:20:36.901Z,-1.90
2018-02-22T07:23:16.790Z,-1.80
2018-02-22T07:25:52.142Z,-1.80
2018-02-22T07:31:08.595Z,-1.80
2018-02-22T07:33:43.116Z,-1.80
2018-02-22T07:36:20.780Z,-1.80
2018-02-22T07:38:57.905Z,-1.80
2018-02-22T07:41:33.704Z,-1.70
2018-02-22T07:44:08.483Z,-1.70
2018-02-22T07:46:44.496Z,-1.60
2018-02-22T07:49:19.180Z,-1.60
2018-02-22T07:51:52.948Z,-1.60
2018-02-22T07:54:28.096Z,-1.50
2018-02-22T07:57:04.113Z,-1.40
2018-02-22T07:59:38.592Z,-1.40
2018-02-22T08:02:15.725Z,-1.30
2018-02-22T08:04:51.221Z,-1.30
2018-02-22T08:07:27.214Z,-1.20
2018-02-22T08:10:11.862Z,-1.10
2018-02-22T08:12:52.813Z,-1.00
2018-02-22T08:15:28.873Z,-0.90
2018-02-22T08:18:06.088Z,-0.90
2018-02-22T08:20:41.513Z,-0.90
2018-02-22T08:23:17.970Z,-0.80
2018-02-22T08:25:53.066Z,-0.70
2018-02-22T08:28:28.308Z,-0.70
2018-02-22T08:31:02.709Z,-0.70
2018-02-22T08:33:39.822Z,-0.50
2018-02-22T08:36:16.974Z,-0.70
2018-02-22T08:38:53.714Z,-0.70
2018-02-22T08:41:28.828Z,-0.70
2018-02-22T08:44:03.473Z,-0.60
2018-02-22T08:46:38.941Z,-0.60
2018-02-22T08:49:13.479Z,-0.40
2018-02-22T08:51:47.342Z,-0.40
2018-02-22T08:54:21.329Z,-0.30
2018-02-22T08:56:55.151Z,-0.30
2018-02-22T08:59:28.788Z,-0.30
2018-02-22T09:02:04.608Z,-0.30
2018-02-22T09:04:38.505Z,-0.30
2018-02-22T09:07:13.776Z,-0.30
2018-02-22T09:09:49.613Z,-0.20
2018-02-22T09:12:23.338Z,-0.20
2018-02-22T09:14:56.913Z,-0.40
2018-02-22T09:17:30.600Z,-0.40
2018-02-22T09:20:04.409Z,-0.40
2018-02-22T09:22:38.266Z,-0.40
2018-02-22T09:25:15.193Z,-0.40
2018-02-22T09:27:53.442Z,-0.40
2018-02-22T09:30:28.989Z,-0.50
2018-02-22T09:33:05.130Z,-0.60
2018-02-22T09:35:43.664Z,-0.60
2018-02-22T09:38:22.251Z,-0.50
2018-02-22T09:40:56.044Z,-0.50
2018-02-22T09:43:29.929Z,-0.40
2018-02-22T09:46:04.943Z,-0.20
2018-02-22T09:48:39.704Z,-0.30
2018-02-22T09:51:14.173Z,-0.30
2018-02-22T09:53:49.158Z,-0.30
2018-02-22T09:56:22.916Z,-0.20
2018-02-22T09:58:57.690Z,-0.20
2018-02-22T10:01:33.722Z,-0.10
2018-02-22T10:04:09.097Z,0.00
2018-02-22T10:06:44.117Z,0.10
2018-02-22T10:09:19.464Z,0.20
2018-02-22T10:11:53.981Z,0.30
2018-02-22T10:14:28.717Z,0.30
2018-02-22T10:17:03.246Z,0.40
2018-02-22T10:19:37.864Z,0.40
2018-02-22T10:22:13.822Z,0.60
2018-02-22T10:27:34.745Z,0.80
2018-02-22T10:30:11.316Z,1.00
2018-02-22T10:32:46.816Z,1.10
2018-02-22T10:35:22.247Z,1.20
2018-02-22T10:37:59.573Z,1.30
2018-02-22T10:40:37.724Z,1.30
2018-02-22T10:43:13.555Z,1.30
2018-02-22T10:45:50.473Z,1.50
2018-02-22T10:48:27.489Z,1.60
2018-02-22T10:51:06.712Z,1.70
2018-02-22T10:53:45.040Z,1.70
2018-02-22T10:56:28.971Z,1.70
2018-02-22T10:59:02.674Z,1.80
2018-02-22T11:01:43.711Z,1.90
2018-02-22T11:04:17.684Z,2.00
2018-02-22T11:06:54.295Z,2.00
2018-02-22T11:09:28.381Z,2.00
2018-02-22T11:12:01.973Z,2.10
2018-02-22T11:14:36.970Z,2.30
2018-02-22T11:20:07.561Z,2.50
2018-02-22T11:22:43.416Z,2.60
2018-02-22T11:25:20.529Z,2.80
2018-02-22T11:27:58.896Z,2.80
2018-02-22T11:30:34.374Z,3.00
2018-02-22T12:15:43.339Z,3.00
2018-02-22T12:18:21.106Z,3.50
2018-02-22T12:20:57.511Z,3.40
2018-02-22T12:23:33.707Z,3.40
2018-02-22T12:26:12.374Z,3.30
2018-02-22T12:28:56.251Z,3.40
2018-02-22T12:31:38.376Z,3.40
2018-02-22T12:34:15.188Z,3.40
2018-02-22T12:36:59.945Z,3.40
2018-02-22T12:45:02.891Z,3.30
2018-02-22T12:47:39.808Z,3.30
2018-02-22T12:50:16.177Z,3.40
2018-02-22T12:52:56.661Z,3.50
2018-02-22T12:55:35.684Z,3.60
2018-02-22T12:58:15.654Z,3.60
2018-02-22T13:00:52.285Z,3.60
2018-02-22T13:03:26.852Z,3.50
2018-02-22T13:06:05.001Z,3.40
2018-02-22T13:08:38.808Z,3.30
2018-02-22T13:11:15.736Z,3.30
2018-02-22T13:13:49.334Z,3.90
2018-02-22T13:16:23.669Z,4.80
2018-02-22T13:18:57.680Z,4.80
2018-02-22T13:21:32.357Z,5.60
2018-02-22T13:24:06.923Z,6.70
2018-02-22T13:26:42.110Z,7.30
2018-02-22T13:32:03.398Z,8.20
2018-02-22T13:34:38.040Z,8.70
2018-02-22T13:42:54.069Z,11.10
2018-02-22T13:45:34.970Z,11.50
2018-02-22T13:48:11.004Z,12.00
2018-02-22T13:50:59.561Z,12.00
2018-02-22T13:53:37.639Z,12.80
2018-02-22T13:56:24.306Z,13.20
2018-02-22T13:58:59.181Z,13.70
2018-02-22T14:01:46.501Z,13.60
2018-02-22T14:07:03.531Z,12.40
2018-02-22T14:09:38.634Z,12.50
2018-02-22T14:12:16.724Z,11.80
2018-02-22T14:14:52.940Z,11.10
2018-02-22T14:17:28.439Z,10.40
2018-02-22T14:20:04.604Z,7.80
2018-02-22T14:22:38.300Z,7.80
2018-02-22T14:27:59.276Z,6.20
2018-02-22T14:30:37.692Z,5.90
2018-02-22T14:33:20.334Z,5.30
2018-02-22T14:36:00.795Z,5.30
2018-02-22T14:38:39.397Z,5.10
2018-02-22T14:41:15.123Z,5.10
2018-02-22T14:43:49.109Z,5.10
2018-02-22T14:46:24.435Z,5.20
2018-02-22T14:48:58.364Z,5.20
2018-02-22T14:51:34.999Z,5.20
2018-02-22T14:54:15.697Z,5.40
2018-02-22T14:56:49.809Z,5.70
2018-02-22T14:59:28.885Z,5.80
2018-02-22T15:04:48.908Z,7.80
2018-02-22T15:07:37.428Z,7.80
2018-02-22T15:10:12.628Z,8.40
2018-02-22T15:12:49.332Z,11.40
2018-02-22T15:15:23.696Z,11.40
2018-02-22T15:17:57.399Z,12.00
2018-02-22T15:20:33.071Z,12.20
2018-02-22T15:23:12.109Z,12.20
2018-02-22T15:25:46.589Z,11.70
2018-02-22T15:28:21.424Z,9.60
2018-02-22T15:30:56.260Z,9.60
2018-02-22T15:33:30.767Z,9.40
2018-02-22T15:36:05.717Z,9.70
2018-02-22T15:38:40.157Z,11.20
2018-02-22T15:41:14.890Z,11.20
2018-02-22T15:43:48.797Z,12.50
2018-02-22T15:46:22.570Z,13.00
2018-02-22T15:48:57.095Z,12.10
2018-02-22T15:51:33.298Z,12.10
2018-02-22T15:54:07.382Z,11.50
2018-02-22T15:56:41.297Z,10.20
2018-02-22T15:59:17.500Z,8.20
2018-02-22T16:01:52.433Z,6.50
2018-02-22T16:04:27.127Z,5.60
2018-02-22T16:07:00.913Z,5.20
2018-02-22T16:09:35.513Z,4.70
2018-02-22T16:12:11.009Z,4.60
2018-02-22T16:14:45.532Z,4.30
2018-02-22T16:17:20.948Z,4.00
2018-02-22T16:19:55.152Z,3.90
2018-02-22T16:22:29.410Z,3.90
2018-02-22T16:25:03.262Z,3.80
2018-02-22T16:27:37.959Z,3.60
2018-02-22T16:30:12.355Z,3.50
2018-02-22T16:32:46.078Z,3.50
2018-02-22T16:35:20.240Z,3.50
2018-02-22T16:37:54.099Z,3.40
2018-02-22T16:40:28.672Z,3.30
2018-02-22T16:43:04.032Z,3.10
2018-02-22T16:45:38.068Z,3.10
2018-02-22T16:48:11.880Z,3.00
2018-02-22T16:50:45.791Z,2.90
2018-02-22T16:53:20.724Z,2.90
2018-02-22T16:55:54.362Z,2.90
2018-02-22T16:58:28.809Z,2.90
2018-02-22T17:01:02.876Z,2.90
2018-02-22T17:03:36.686Z,2.80
2018-02-22T17:06:10.338Z,2.80
2018-02-22T17:08:44.316Z,2.80
2018-02-22T17:11:18.658Z,2.70
2018-02-22T17:13:52.522Z,2.60
2018-02-22T17:16:28.021Z,2.60
2018-02-22T17:19:02.655Z,2.50
2018-02-22T17:21:37.300Z,2.50
2018-02-22T17:24:11.066Z,2.50
2018-02-22T17:26:51.369Z,2.40
2018-02-22T17:29:30.601Z,2.40
2018-02-22T17:32:10.134Z,2.40
2018-02-22T17:34:44.830Z,2.20
2018-02-22T17:37:23.839Z,2.30
2018-02-22T17:40:03.152Z,2.20
2018-02-22T17:42:38.950Z,2.20
2018-02-22T17:45:13.318Z,2.10
2018-02-22T17:47:47.884Z,2.10
2018-02-22T17:50:25.444Z,2.00
2018-02-22T17:53:01.643Z,2.00
2018-02-22T17:55:35.922Z,2.00
2018-02-22T17:58:10.346Z,1.90
2018-02-22T18:00:45.733Z,2.00
2018-02-22T18:03:19.746Z,2.00
2018-02-22T18:05:55.622Z,1.90
2018-02-22T18:08:29.732Z,1.90
2018-02-22T18:11:03.474Z,1.90
2018-02-22T18:13:40.911Z,1.90
2018-02-22T18:16:17.124Z,1.80
2018-02-22T18:18:52.437Z,1.90
2018-02-22T18:21:26.368Z,1.90
2018-02-22T18:24:01.406Z,1.80
2018-02-22T18:26:36.745Z,1.80
2018-02-22T18:29:14.993Z,1.80
2018-02-22T18:34:40.379Z,1.80
2018-02-22T18:37:23.329Z,1.80
2018-02-22T18:45:39.425Z,1.60
2018-02-22T18:54:20.301Z,1.40
2018-02-22T19:05:28.928Z,1.10
2018-02-22T19:08:22.956Z,1.20
2018-02-22T19:41:15.390Z,1.50
2018-02-22T19:44:10.669Z,1.50
2018-02-22T20:05:12.365Z,1.40
2018-02-22T20:10:39.004Z,1.50
2018-02-22T20:21:47.102Z,1.50
2018-02-22T20:24:22.423Z,1.50
2018-02-22T20:27:01.037Z,1.50
2018-02-22T20:29:38.887Z,1.50
2018-02-22T20:32:20.146Z,1.40
2018-02-22T20:35:06.158Z,1.40
2018-02-22T20:37:41.295Z,1.40
2018-02-22T20:40:19.359Z,1.40
2018-02-22T20:48:43.141Z,1.40
2018-02-22T20:51:25.175Z,1.50
2018-02-22T20:54:06.493Z,1.50
2018-02-22T20:59:25.977Z,1.40
2018-02-22T21:02:07.873Z,1.40
2018-02-22T21:04:47.816Z,1.50
2018-02-22T21:07:24.296Z,1.40
2018-02-22T21:12:43.444Z,1.40
2018-02-22T21:15:23.973Z,1.40
2018-02-22T21:18:03.495Z,1.40
2018-02-22T21:20:41.157Z,1.40
2018-02-22T21:23:20.540Z,1.40
2018-02-22T21:25:57.828Z,1.40
2018-02-22T21:28:34.307Z,1.40
2018-02-22T21:31:14.323Z,1.40
2018-02-22T21:33:49.164Z,1.40
2018-02-22T21:36:23.577Z,1.40
2018-02-22T21:38:58.149Z,1.40
2018-02-22T21:41:35.160Z,1.40
2018-02-22T21:44:11.332Z,1.40
2018-02-22T21:46:45.716Z,1.40
2018-02-22T21:49:21.836Z,1.40
2018-02-22T21:51:56.870Z,1.30
2018-02-22T21:54:30.999Z,1.30
2018-02-22T21:57:05.880Z,1.30
2018-02-22T21:59:41.708Z,1.30
2018-02-22T22:02:17.852Z,1.30
2018-02-22T22:04:54.770Z,1.30
2018-02-22T22:07:35.636Z,1.30
2018-02-22T22:10:10.569Z,1.30
2018-02-22T22:12:55.294Z,1.30
2018-02-22T22:15:33.605Z,1.20
2018-02-22T22:18:16.495Z,1.20
2018-02-22T22:20:51.598Z,1.30
2018-02-22T22:23:27.394Z,1.20
2018-02-22T22:26:04.202Z,1.20
2018-02-22T22:34:18.062Z,1.20
2018-02-22T22:37:02.158Z,1.20
2018-02-22T22:39:40.389Z,1.10
2018-02-22T22:42:17.143Z,1.10
2018-02-22T22:44:54.454Z,1.10
2018-02-22T22:47:34.945Z,1.10
2018-02-22T22:50:19.540Z,1.10
2018-02-22T22:55:41.724Z,1.10
2018-02-22T22:58:23.174Z,1.10
2018-02-22T23:01:04.750Z,1.00
2018-02-22T23:03:48.057Z,1.00
2018-02-22T23:06:26.195Z,1.00
2018-02-22T23:09:05.467Z,0.90
2018-02-22T23:11:42.307Z,1.00
2018-02-22T23:14:21.985Z,1.00
2018-02-22T23:16:56.340Z,0.90
2018-02-22T23:22:21.059Z,0.90
2018-02-22T23:24:55.592Z,0.90
2018-02-22T23:27:35.271Z,0.90
2018-02-22T23:30:11.824Z,0.90
2018-02-22T23:32:46.081Z,0.80
2018-02-22T23:35:25.609Z,0.80
2018-02-22T23:38:00.139Z,0.80
2018-02-22T23:40:51.580Z,0.80
2018-02-22T23:43:27.694Z,0.70
2018-02-22T23:46:06.960Z,0.70
2018-02-22T23:48:51.838Z,0.70
2018-02-22T23:54:10.653Z,0.70
2018-02-22T23:56:52.488Z,0.70
2018-02-22T23:59:33.658Z,0.60
